This is the latest recevied weather packets stored in our database for station/object N8JE-13. If no packets are shown the sender has not sent any weather packets the latest 1 day(s).
| Time | Temp. | Humidity | Pressure | Rain* | Wind** | Luminosity | Snow |
|---|---|---|---|---|---|---|---|
| 1778079652 | 10.56° C | 70% | 1011.8 hPa | 0 mm | - | - | - |
| 1778078152 | 10° C | 75% | 1011.6 hPa | 0 mm | - | - | - |
| 1778077852 | 9.44° C | 76% | 1011.6 hPa | 0 mm | - | - | - |
| 1778077552 | 9.44° C | 77% | 1011.7 hPa | 0 mm | - | - | - |
| 1778076652 | 8.89° C | 80% | 1011.6 hPa | 0 mm | - | - | - |
| 1778076351 | 8.89° C | 80% | 1011.6 hPa | 0 mm | - | - | - |
| 1778076053 | 8.89° C | 82% | 1011.6 hPa | 0 mm | - | - | - |
| 1778074851 | 8.33° C | 85% | 1011 hPa | 0 mm | - | - | - |
| 1778074552 | 7.78° C | 85% | 1011 hPa | 0 mm | - | - | - |
| 1778073351 | 7.78° C | 87% | 1011 hPa | 0 mm | - | - | - |
| 1778073051 | 7.22° C | 87% | 1010.8 hPa | 0 mm | - | - | - |
| 1778071852 | 7.22° C | 89% | 1010.6 hPa | 0 mm | - | - | - |
| 1778071552 | 7.22° C | 89% | 1010.6 hPa | 0 mm | - | - | - |
| 1778071251 | 7.22° C | 89% | 1010.7 hPa | 0 mm | - | - | - |
| 1778069451 | 6.67° C | 91% | 1010 hPa | 0 mm | - | - | - |
| 1778069151 | 6.67° C | 91% | 1009.8 hPa | 0 mm | - | - | - |
| 1778068851 | 6.67° C | 91% | 1009.7 hPa | 0 mm | - | - | - |
| 1778067351 | 6.67° C | 92% | 1009.5 hPa | 0 mm | - | - | - |
| 1778067051 | 6.67° C | 92% | 1009.5 hPa | 0 mm | - | - | - |
| 1778066751 | 6.67° C | 92% | 1009.7 hPa | 0 mm | - | - | - |
| 1778065851 | 6.67° C | 92% | 1008.8 hPa | 0 mm | - | - | - |
| 1778065551 | 6.67° C | 92% | 1009 hPa | 0 mm | - | - | - |
| 1778064651 | 6.67° C | 92% | 1008.5 hPa | 0 mm | - | - | - |
| 1778064051 | 6.11° C | 92% | 1008.1 hPa | 0 mm | - | - | - |
| 1778063152 | 6.67° C | 93% | 1008.9 hPa | 0 mm | - | - | - |
* Rain latest hour (hover to see other rain measurements)
** Current wind speed in m/s (hover to see current wind gust speed)